createdAt,value
2022-08-26T00:01:54.173Z,64.10
2022-08-26T00:04:24.954Z,64.07
2022-08-26T00:06:53.724Z,64.21
2022-08-26T00:09:21.451Z,64.42
2022-08-26T00:11:49.708Z,64.15
2022-08-26T00:14:18.819Z,64.11
2022-08-26T00:16:47.132Z,63.94
2022-08-26T00:19:16.152Z,63.98
2022-08-26T00:21:45.392Z,64.30
2022-08-26T00:24:13.194Z,64.06
2022-08-26T00:26:41.609Z,63.92
2022-08-26T00:29:10.695Z,64.28
2022-08-26T00:31:38.428Z,64.11
2022-08-26T00:34:09.567Z,64.34
2022-08-26T00:36:37.824Z,63.81
2022-08-26T00:39:08.326Z,63.87
2022-08-26T00:41:36.227Z,64.18
2022-08-26T00:44:05.480Z,64.28
2022-08-26T00:46:37.752Z,64.25
2022-08-26T00:49:12.096Z,64.08
2022-08-26T00:51:45.001Z,64.34
2022-08-26T00:54:15.671Z,64.34
2022-08-26T00:56:47.871Z,64.52
2022-08-26T00:59:17.923Z,64.43
2022-08-26T01:01:46.304Z,65.06
2022-08-26T01:04:19.152Z,65.68
2022-08-26T01:06:48.960Z,66.10
2022-08-26T01:09:20.447Z,65.98
2022-08-26T01:11:49.825Z,65.88
2022-08-26T01:14:20.431Z,66.47
2022-08-26T01:16:49.994Z,66.92
2022-08-26T01:19:21.742Z,66.92
2022-08-26T01:21:56.728Z,66.57
2022-08-26T01:24:28.231Z,66.03
2022-08-26T01:26:58.784Z,66.14
2022-08-26T01:29:27.161Z,65.80
2022-08-26T01:31:57.406Z,66.36
2022-08-26T01:34:28.697Z,66.43
2022-08-26T01:37:02.300Z,66.45
2022-08-26T01:39:33.423Z,66.49
2022-08-26T01:42:03.295Z,66.95
2022-08-26T01:44:36.155Z,67.01
2022-08-26T01:47:06.531Z,67.19
2022-08-26T01:49:36.579Z,67.44
2022-08-26T01:52:06.411Z,67.23
2022-08-26T01:54:36.432Z,67.16
2022-08-26T01:57:05.037Z,67.16
2022-08-26T01:59:33.005Z,67.64
2022-08-26T02:02:00.648Z,67.55
2022-08-26T02:04:31.924Z,67.32
2022-08-26T02:07:04.719Z,67.42
2022-08-26T02:09:32.496Z,67.10
2022-08-26T02:12:09.019Z,66.71
2022-08-26T02:14:43.947Z,66.87
2022-08-26T02:17:12.373Z,67.10
2022-08-26T02:19:42.929Z,68.06
2022-08-26T02:22:16.069Z,67.86
2022-08-26T02:24:50.455Z,67.53
2022-08-26T02:27:23.652Z,67.70
2022-08-26T02:29:55.559Z,67.78
2022-08-26T02:32:23.419Z,67.84
2022-08-26T02:34:51.167Z,68.08
2022-08-26T02:37:19.325Z,68.43
2022-08-26T02:39:50.671Z,69.09
2022-08-26T02:42:21.389Z,69.23
2022-08-26T02:44:49.280Z,69.94
2022-08-26T02:47:17.530Z,69.49
2022-08-26T02:49:47.212Z,69.11
2022-08-26T02:52:15.782Z,69.49
2022-08-26T02:54:43.516Z,69.36
2022-08-26T02:57:13.103Z,69.12
2022-08-26T02:59:42.353Z,69.52
2022-08-26T03:02:11.228Z,69.58
2022-08-26T03:04:39.758Z,70.08
2022-08-26T03:07:08.185Z,69.58
2022-08-26T03:09:36.415Z,69.47
2022-08-26T03:12:05.175Z,69.27
2022-08-26T03:14:32.847Z,70.00
2022-08-26T03:17:01.857Z,70.18
2022-08-26T03:19:30.179Z,70.74
2022-08-26T03:21:59.724Z,69.29
2022-08-26T03:24:27.724Z,70.12
2022-08-26T03:26:55.385Z,71.09
2022-08-26T03:29:41.807Z,71.17
2022-08-26T03:32:10.972Z,71.88
2022-08-26T03:34:38.821Z,72.11
2022-08-26T03:37:06.534Z,72.06
2022-08-26T03:39:34.166Z,72.34
2022-08-26T03:42:01.855Z,72.09
2022-08-26T03:44:29.808Z,72.37
2022-08-26T03:46:57.857Z,72.00
2022-08-26T03:49:29.019Z,72.22
2022-08-26T03:51:56.743Z,72.32
2022-08-26T03:54:24.477Z,72.54
2022-08-26T03:56:52.068Z,72.42
2022-08-26T03:59:20.983Z,72.61
2022-08-26T04:01:48.739Z,73.19
2022-08-26T04:04:16.824Z,73.39
2022-08-26T04:06:46.149Z,72.94
2022-08-26T04:09:15.969Z,72.53
2022-08-26T04:11:45.152Z,73.50
2022-08-26T04:14:26.461Z,73.76
2022-08-26T04:16:56.080Z,73.97
2022-08-26T04:19:25.227Z,73.84
2022-08-26T04:21:54.458Z,74.29
2022-08-26T04:24:24.376Z,73.32
2022-08-26T04:26:52.367Z,72.54
2022-08-26T04:29:23.934Z,72.73
2022-08-26T04:31:55.536Z,73.11
2022-08-26T04:34:24.136Z,73.00
2022-08-26T04:36:52.068Z,73.74
2022-08-26T04:39:21.443Z,74.44
2022-08-26T04:41:53.384Z,74.54
2022-08-26T04:44:22.272Z,74.40
2022-08-26T04:46:49.933Z,74.12
2022-08-26T04:49:17.581Z,74.51
2022-08-26T04:51:46.061Z,74.79
2022-08-26T04:54:14.992Z,74.68
2022-08-26T04:56:47.243Z,74.88
2022-08-26T04:59:18.216Z,74.63
2022-08-26T05:01:47.854Z,75.21
2022-08-26T05:04:16.219Z,74.89
2022-08-26T05:06:46.568Z,74.61
2022-08-26T05:09:15.432Z,74.37
2022-08-26T05:11:43.551Z,73.53
2022-08-26T05:14:13.198Z,74.28
2022-08-26T05:16:41.018Z,74.72
2022-08-26T05:19:09.362Z,75.31
2022-08-26T05:21:38.567Z,74.74
2022-08-26T05:24:07.377Z,75.34
2022-08-26T05:26:35.073Z,75.02
2022-08-26T05:29:02.860Z,74.74
2022-08-26T05:31:33.966Z,74.64
2022-08-26T05:34:03.689Z,74.20
2022-08-26T05:36:33.342Z,74.00
2022-08-26T05:39:02.281Z,73.53
2022-08-26T05:41:34.459Z,73.02
2022-08-26T05:44:05.987Z,73.00
2022-08-26T05:46:35.826Z,73.35
2022-08-26T05:49:05.719Z,73.46
2022-08-26T05:51:33.786Z,73.60
2022-08-26T05:54:03.610Z,73.73
2022-08-26T05:56:31.410Z,73.88
2022-08-26T05:59:01.365Z,73.86
2022-08-26T06:01:30.255Z,73.29
2022-08-26T06:04:01.998Z,72.52
2022-08-26T06:06:32.287Z,71.73
2022-08-26T06:09:01.568Z,70.44
2022-08-26T06:11:32.454Z,69.41
2022-08-26T06:14:04.047Z,69.08
2022-08-26T06:16:33.387Z,68.39
2022-08-26T06:19:10.563Z,67.87
2022-08-26T06:21:40.317Z,67.21
2022-08-26T06:24:27.923Z,66.78
2022-08-26T06:26:57.148Z,66.85
2022-08-26T06:29:26.916Z,66.98
2022-08-26T06:31:57.028Z,66.52
2022-08-26T06:34:30.372Z,66.45
2022-08-26T06:37:02.107Z,65.96
2022-08-26T06:39:31.396Z,65.36
2022-08-26T06:41:59.312Z,64.81
2022-08-26T06:44:27.496Z,64.31
2022-08-26T06:46:55.923Z,63.86
2022-08-26T06:49:25.778Z,63.66
2022-08-26T06:51:58.824Z,63.28
2022-08-26T06:54:26.740Z,63.03
2022-08-26T06:56:56.644Z,62.48
2022-08-26T06:59:24.350Z,62.38
2022-08-26T07:01:52.196Z,61.85
2022-08-26T07:04:22.459Z,61.54
2022-08-26T07:06:53.698Z,60.68
2022-08-26T07:09:25.304Z,60.33
2022-08-26T07:11:55.338Z,59.82
2022-08-26T07:14:23.781Z,60.02
2022-08-26T07:16:52.032Z,58.75
2022-08-26T07:19:30.014Z,57.76
2022-08-26T07:22:01.650Z,58.24
2022-08-26T07:24:32.271Z,57.20
2022-08-26T07:27:01.273Z,57.22
2022-08-26T07:29:29.176Z,56.51
2022-08-26T07:31:56.908Z,56.79
2022-08-26T07:34:25.298Z,55.75
2022-08-26T07:36:55.325Z,55.17
2022-08-26T07:39:24.080Z,55.60
2022-08-26T07:41:53.930Z,55.13
2022-08-26T07:44:21.960Z,55.77
2022-08-26T07:46:52.424Z,54.90
2022-08-26T07:49:22.483Z,54.36
2022-08-26T07:51:50.744Z,54.18
2022-08-26T07:54:18.718Z,54.07
2022-08-26T07:56:47.444Z,54.06
2022-08-26T07:59:18.623Z,54.38
2022-08-26T08:01:47.110Z,54.00
2022-08-26T08:04:15.816Z,54.28
2022-08-26T08:06:44.027Z,52.95
2022-08-26T08:09:13.223Z,52.11
2022-08-26T08:11:41.344Z,52.08
2022-08-26T08:14:11.845Z,51.76
2022-08-26T08:16:45.993Z,51.04
2022-08-26T08:19:15.267Z,51.28
2022-08-26T08:21:43.387Z,51.51
2022-08-26T08:24:12.176Z,51.41
2022-08-26T08:26:40.128Z,52.08
2022-08-26T08:29:09.147Z,51.89
2022-08-26T08:31:56.561Z,51.29
2022-08-26T08:34:27.896Z,51.22
2022-08-26T08:36:56.033Z,51.73
2022-08-26T08:39:24.992Z,51.81
2022-08-26T08:42:27.579Z,51.12
2022-08-26T08:45:00.252Z,51.36
2022-08-26T08:47:33.773Z,51.24
2022-08-26T08:50:07.344Z,50.94
2022-08-26T08:52:37.061Z,50.40
2022-08-26T08:55:11.014Z,50.42
2022-08-26T08:58:04.650Z,49.90
2022-08-26T09:00:44.123Z,49.10
2022-08-26T09:03:25.496Z,49.98
2022-08-26T09:05:55.404Z,49.17
2022-08-26T09:08:27.396Z,48.26
2022-08-26T09:10:59.085Z,48.30
2022-08-26T09:13:27.851Z,47.20
2022-08-26T09:16:06.698Z,46.72
2022-08-26T09:18:52.795Z,46.93
2022-08-26T09:21:25.144Z,46.60
2022-08-26T09:23:55.774Z,46.16
2022-08-26T09:26:29.233Z,45.55
2022-08-26T09:29:00.445Z,46.23
2022-08-26T09:31:31.049Z,45.19
2022-08-26T09:34:17.395Z,45.31
2022-08-26T09:36:48.836Z,44.59
2022-08-26T09:39:30.091Z,44.54
2022-08-26T09:42:08.197Z,44.70
2022-08-26T09:44:54.639Z,44.72
2022-08-26T09:47:28.083Z,44.13
2022-08-26T09:50:04.089Z,43.76
2022-08-26T09:52:33.439Z,43.46
2022-08-26T09:55:04.816Z,43.58
2022-08-26T09:57:35.326Z,43.33
2022-08-26T10:00:23.824Z,42.20
2022-08-26T10:02:56.020Z,41.78
2022-08-26T10:05:32.905Z,42.17
2022-08-26T10:08:17.145Z,42.11
2022-08-26T10:10:46.023Z,41.73
2022-08-26T10:13:20.767Z,41.97
2022-08-26T10:15:59.571Z,40.80
2022-08-26T10:18:34.709Z,40.55
2022-08-26T10:21:08.318Z,39.99
2022-08-26T10:26:17.412Z,40.24
2022-08-26T10:28:50.749Z,38.74
2022-08-26T10:31:28.281Z,38.60
2022-08-26T10:34:00.466Z,38.52
2022-08-26T10:39:46.218Z,38.89
2022-08-26T10:42:20.245Z,39.32
2022-08-26T10:44:50.996Z,38.76
2022-08-26T10:47:23.030Z,37.77
2022-08-26T10:49:58.692Z,37.52
2022-08-26T10:52:41.577Z,38.23
2022-08-26T10:55:20.715Z,36.71
2022-08-26T10:57:56.383Z,36.53
2022-08-26T11:00:46.638Z,36.53
2022-08-26T11:03:29.180Z,36.21
2022-08-26T11:06:21.949Z,36.17
2022-08-26T11:08:51.781Z,35.26
2022-08-26T11:11:51.398Z,34.63
2022-08-26T11:14:45.958Z,34.80
2022-08-26T11:17:56.557Z,33.27
2022-08-26T11:20:36.750Z,33.70
2022-08-26T11:23:50.545Z,33.19
2022-08-26T11:26:27.461Z,33.36
2022-08-26T11:29:13.142Z,32.05
2022-08-26T11:31:57.648Z,31.81
2022-08-26T11:34:43.855Z,31.34
2022-08-26T11:37:17.939Z,31.47
2022-08-26T11:39:54.978Z,30.72
2022-08-26T11:42:32.402Z,30.39
2022-08-26T11:45:05.442Z,31.07
2022-08-26T11:47:33.433Z,30.54
2022-08-26T11:50:13.470Z,28.88
2022-08-26T11:52:41.088Z,29.51
2022-08-26T11:55:12.014Z,30.20
2022-08-26T11:57:45.642Z,28.55
2022-08-26T12:00:22.755Z,29.53
2022-08-26T12:02:52.467Z,30.70
2022-08-26T12:05:25.358Z,30.66
2022-08-26T12:07:55.235Z,29.86
2022-08-26T12:10:29.777Z,29.21
2022-08-26T12:12:59.279Z,28.63
2022-08-26T12:15:29.895Z,28.73
2022-08-26T12:17:59.207Z,27.65
2022-08-26T12:20:45.854Z,26.60
2022-08-26T12:23:29.221Z,26.59
2022-08-26T12:26:05.885Z,25.61
2022-08-26T12:28:34.401Z,25.49
2022-08-26T12:31:07.123Z,25.37
2022-08-26T12:33:36.884Z,24.35
2022-08-26T12:36:05.940Z,23.88
2022-08-26T12:38:37.421Z,24.65
2022-08-26T12:41:05.448Z,24.20
2022-08-26T12:43:44.952Z,24.48
2022-08-26T12:46:18.595Z,24.85
2022-08-26T12:48:49.940Z,24.72
2022-08-26T12:51:24.588Z,24.64
2022-08-26T12:53:52.976Z,24.10
2022-08-26T12:56:27.471Z,22.78
2022-08-26T12:59:03.588Z,22.60
2022-08-26T13:01:39.935Z,22.02
2022-08-26T13:04:07.819Z,22.40
2022-08-26T13:06:35.790Z,21.55
2022-08-26T13:09:25.049Z,22.10
2022-08-26T13:12:00.226Z,22.75
2022-08-26T13:14:30.349Z,21.60
2022-08-26T13:16:59.305Z,21.72
2022-08-26T13:19:27.174Z,20.40
2022-08-26T13:21:57.414Z,19.82
2022-08-26T13:24:31.904Z,19.57
2022-08-26T13:27:00.778Z,19.34
2022-08-26T13:29:28.647Z,19.38
2022-08-26T13:31:56.739Z,19.22
2022-08-26T13:34:27.783Z,19.21
2022-08-26T13:36:56.666Z,19.46
2022-08-26T13:39:25.447Z,19.67
2022-08-26T13:41:53.326Z,20.30
2022-08-26T13:44:21.530Z,22.28
2022-08-26T13:46:49.217Z,22.88
2022-08-26T13:49:16.939Z,23.53
2022-08-26T13:51:46.009Z,23.55
2022-08-26T13:54:13.682Z,22.80
2022-08-26T13:56:41.502Z,22.00
2022-08-26T13:59:09.182Z,21.76
2022-08-26T14:01:39.919Z,20.05
2022-08-26T14:04:08.282Z,20.17
2022-08-26T14:06:36.181Z,20.06
2022-08-26T14:09:05.609Z,21.01
2022-08-26T14:11:50.537Z,21.25
2022-08-26T14:14:20.829Z,21.89
2022-08-26T14:16:59.830Z,23.17
2022-08-26T14:19:29.420Z,23.99
2022-08-26T14:21:57.063Z,28.25
2022-08-26T14:24:26.054Z,29.77
2022-08-26T14:26:53.707Z,30.24
2022-08-26T14:29:21.348Z,32.50
2022-08-26T14:31:49.280Z,32.07
2022-08-26T14:34:17.021Z,32.10
2022-08-26T14:36:44.619Z,32.11
2022-08-26T14:39:14.615Z,31.71
2022-08-26T14:41:54.517Z,30.96
2022-08-26T14:44:25.393Z,30.62
2022-08-26T14:46:54.483Z,30.27
2022-08-26T14:49:24.368Z,29.30
2022-08-26T14:51:51.980Z,27.90
2022-08-26T14:54:20.114Z,28.60
2022-08-26T14:56:51.550Z,28.74
2022-08-26T14:59:21.743Z,29.55
2022-08-26T15:01:49.609Z,30.06
2022-08-26T15:04:17.944Z,29.99
2022-08-26T15:06:46.121Z,29.98
2022-08-26T15:09:14.033Z,30.44
2022-08-26T15:11:41.721Z,32.93
2022-08-26T15:14:19.133Z,33.36
2022-08-26T15:16:48.388Z,34.19
2022-08-26T15:19:16.454Z,34.36
2022-08-26T15:21:45.484Z,34.43
2022-08-26T15:24:13.744Z,34.33
2022-08-26T15:26:41.920Z,34.65
2022-08-26T15:29:11.357Z,34.65
2022-08-26T15:31:39.168Z,34.39
2022-08-26T15:34:11.141Z,33.86
2022-08-26T15:36:44.605Z,33.61
2022-08-26T15:39:12.631Z,33.66
2022-08-26T15:41:41.060Z,35.35
2022-08-26T15:44:09.261Z,35.98
2022-08-26T15:46:39.284Z,36.95
2022-08-26T15:49:07.852Z,37.39
2022-08-26T15:51:45.974Z,38.47
2022-08-26T15:54:14.722Z,39.65
2022-08-26T15:56:43.604Z,40.70
2022-08-26T15:59:12.083Z,40.57
2022-08-26T16:01:41.523Z,41.78
2022-08-26T16:04:09.724Z,41.36
2022-08-26T16:06:39.792Z,41.00
2022-08-26T16:09:08.725Z,41.42
2022-08-26T16:11:37.317Z,41.05
2022-08-26T16:14:06.101Z,41.35
2022-08-26T16:16:33.830Z,41.15
2022-08-26T16:19:07.293Z,41.49
2022-08-26T16:21:36.010Z,41.80
2022-08-26T16:24:04.741Z,41.99
2022-08-26T16:26:34.440Z,41.52
2022-08-26T16:29:04.008Z,41.91
2022-08-26T16:31:31.870Z,42.33
2022-08-26T16:33:59.548Z,42.32
2022-08-26T16:36:28.516Z,43.35
2022-08-26T16:38:56.400Z,45.08
2022-08-26T16:41:25.415Z,46.13
2022-08-26T16:43:53.647Z,47.06
2022-08-26T16:46:23.598Z,47.68
2022-08-26T16:48:51.242Z,47.86
2022-08-26T16:51:23.297Z,47.49
2022-08-26T16:53:53.391Z,49.23
2022-08-26T16:56:23.589Z,49.13
2022-08-26T16:59:01.180Z,50.31
2022-08-26T17:01:29.560Z,51.87
2022-08-26T17:03:57.206Z,53.04
2022-08-26T17:06:24.984Z,53.53
2022-08-26T17:08:53.960Z,55.77
2022-08-26T17:11:21.593Z,57.82
2022-08-26T17:13:49.227Z,58.87
2022-08-26T17:16:17.008Z,62.93
2022-08-26T17:18:44.676Z,62.64
2022-08-26T17:21:14.356Z,63.44
2022-08-26T17:23:43.684Z,63.75
2022-08-26T17:26:13.074Z,63.43
2022-08-26T17:28:41.377Z,64.72
2022-08-26T17:31:10.558Z,65.08
2022-08-26T17:33:38.671Z,66.26
2022-08-26T17:36:07.633Z,67.07
2022-08-26T17:38:35.507Z,66.20
2022-08-26T17:41:03.343Z,66.36
2022-08-26T17:43:32.317Z,67.29
2022-08-26T17:46:06.889Z,68.41
2022-08-26T17:48:35.397Z,68.74
2022-08-26T17:51:08.261Z,70.11
2022-08-26T17:53:36.020Z,71.88
2022-08-26T17:56:06.637Z,72.18
2022-08-26T17:58:37.792Z,73.10
2022-08-26T18:01:06.480Z,74.99
2022-08-26T18:03:35.198Z,75.17
2022-08-26T18:06:03.613Z,74.00
2022-08-26T18:08:31.279Z,74.36
2022-08-26T18:10:59.026Z,74.67
2022-08-26T18:13:26.653Z,76.68
2022-08-26T18:15:56.177Z,76.69
2022-08-26T18:18:23.892Z,75.69
2022-08-26T18:20:51.830Z,75.36
2022-08-26T18:23:29.607Z,75.96
2022-08-26T18:25:59.308Z,76.79
2022-08-26T18:28:26.923Z,77.23
2022-08-26T18:30:57.619Z,77.71
2022-08-26T18:33:25.443Z,78.17
2022-08-26T18:35:53.362Z,78.44
2022-08-26T18:38:20.983Z,78.88
2022-08-26T18:40:50.167Z,79.71
2022-08-26T18:43:17.779Z,80.48
2022-08-26T18:45:45.515Z,80.14
2022-08-26T18:48:14.847Z,80.37
2022-08-26T18:50:46.985Z,81.01
2022-08-26T18:53:15.573Z,81.41
2022-08-26T18:55:43.224Z,81.42
2022-08-26T18:58:11.581Z,81.17
2022-08-26T19:00:39.487Z,80.75
2022-08-26T19:03:07.113Z,81.02
2022-08-26T19:05:47.988Z,80.80
2022-08-26T19:08:15.612Z,81.67
2022-08-26T19:10:43.327Z,82.46
2022-08-26T19:13:11.273Z,82.00
2022-08-26T19:15:40.209Z,82.56
2022-08-26T19:18:08.510Z,82.19
2022-08-26T19:20:41.542Z,82.26
2022-08-26T19:23:30.933Z,83.11
2022-08-26T19:26:00.298Z,83.30
2022-08-26T19:28:28.058Z,84.31
2022-08-26T19:30:55.774Z,84.10
2022-08-26T19:33:23.397Z,83.70
2022-08-26T19:35:51.632Z,83.75
2022-08-26T19:38:20.893Z,84.08
2022-08-26T19:40:48.978Z,84.06
2022-08-26T19:43:16.633Z,82.35
2022-08-26T19:45:45.901Z,83.15
2022-08-26T19:48:13.639Z,83.15
2022-08-26T19:50:42.135Z,83.91
2022-08-26T19:53:10.120Z,83.75
2022-08-26T19:55:39.266Z,84.59
2022-08-26T19:58:07.834Z,84.77
2022-08-26T20:00:37.257Z,85.21
2022-08-26T20:03:05.089Z,85.64
2022-08-26T20:05:32.736Z,86.19
2022-08-26T20:08:00.298Z,86.28
2022-08-26T20:10:28.127Z,86.62
2022-08-26T20:12:57.106Z,87.23
2022-08-26T20:15:24.918Z,87.83
2022-08-26T20:17:56.041Z,86.41
2022-08-26T20:20:41.540Z,86.95
2022-08-26T20:23:09.699Z,87.92
2022-08-26T20:25:38.948Z,87.40
2022-08-26T20:28:09.619Z,87.50
2022-08-26T20:30:37.893Z,86.82
2022-08-26T20:33:05.637Z,87.60
2022-08-26T20:35:33.565Z,87.98
2022-08-26T20:38:01.173Z,88.10
2022-08-26T20:40:28.915Z,87.53
2022-08-26T20:42:56.582Z,87.72
2022-08-26T20:45:25.921Z,88.65
2022-08-26T20:47:53.524Z,89.80
2022-08-26T20:50:21.337Z,89.93
2022-08-26T20:52:48.993Z,89.06
2022-08-26T20:55:17.094Z,89.23
2022-08-26T20:57:44.696Z,88.83
2022-08-26T21:00:16.056Z,88.97
2022-08-26T21:02:46.950Z,89.35
2022-08-26T21:05:14.640Z,89.51
2022-08-26T21:07:42.244Z,90.15
2022-08-26T21:10:11.227Z,90.08
2022-08-26T21:12:38.888Z,90.09
2022-08-26T21:15:07.567Z,90.43
2022-08-26T21:17:35.574Z,90.37
2022-08-26T21:20:05.227Z,90.46
2022-08-26T21:22:32.902Z,90.89
2022-08-26T21:25:00.641Z,90.96
2022-08-26T21:27:28.285Z,90.53
2022-08-26T21:29:56.324Z,91.37
2022-08-26T21:32:23.975Z,89.86
2022-08-26T21:34:55.637Z,89.29
2022-08-26T21:37:25.656Z,89.39
2022-08-26T21:39:54.056Z,89.73
2022-08-26T21:42:22.023Z,89.33
2022-08-26T21:44:52.858Z,89.75
2022-08-26T21:47:20.760Z,90.20
2022-08-26T21:49:48.556Z,91.06
2022-08-26T21:52:16.249Z,90.71
2022-08-26T21:54:49.258Z,89.94
2022-08-26T21:57:18.017Z,90.30
2022-08-26T21:59:45.624Z,90.78
2022-08-26T22:02:13.418Z,90.49
2022-08-26T22:04:44.541Z,90.99
2022-08-26T22:07:14.359Z,90.83
2022-08-26T22:09:42.425Z,91.30
2022-08-26T22:12:17.974Z,91.32
2022-08-26T22:14:45.531Z,91.21
2022-08-26T22:17:13.482Z,91.06
2022-08-26T22:19:46.106Z,91.34
2022-08-26T22:22:15.304Z,90.63
2022-08-26T22:24:43.804Z,90.12
2022-08-26T22:27:13.541Z,90.12
2022-08-26T22:29:41.818Z,89.94
2022-08-26T22:32:09.976Z,90.01
2022-08-26T22:34:37.638Z,88.58
2022-08-26T22:37:05.536Z,89.89
2022-08-26T22:39:33.586Z,89.93
2022-08-26T22:42:03.541Z,89.65
2022-08-26T22:44:32.823Z,90.59
2022-08-26T22:47:01.036Z,89.61
2022-08-26T22:49:28.739Z,90.55
2022-08-26T22:51:56.517Z,90.29
2022-08-26T22:54:24.168Z,91.26
2022-08-26T22:56:51.779Z,91.99
2022-08-26T22:59:19.417Z,92.12
2022-08-26T23:01:48.622Z,92.17
2022-08-26T23:04:16.365Z,92.07
2022-08-26T23:06:47.767Z,91.74
2022-08-26T23:09:17.765Z,91.85
2022-08-26T23:11:46.218Z,92.82
2022-08-26T23:14:14.188Z,94.15
2022-08-26T23:16:42.564Z,94.90
2022-08-26T23:19:13.707Z,95.00
2022-08-26T23:21:41.453Z,94.62
2022-08-26T23:24:09.621Z,94.12
2022-08-26T23:26:38.414Z,94.35
2022-08-26T23:29:07.934Z,94.01
2022-08-26T23:31:37.090Z,94.01
2022-08-26T23:34:22.159Z,93.61
2022-08-26T23:36:51.145Z,93.53
2022-08-26T23:39:18.964Z,93.86
2022-08-26T23:41:46.931Z,94.37
2022-08-26T23:44:14.641Z,94.47
2022-08-26T23:46:42.257Z,94.03
2022-08-26T23:49:09.879Z,94.02
2022-08-26T23:51:56.299Z,93.13
2022-08-26T23:54:25.401Z,93.41
2022-08-26T23:56:53.120Z,93.74
2022-08-26T23:59:21.011Z,92.78
